Noxville, Texas
Current Conditions -  °F | °C
As of 4:55 AM on Friday 31 Oct 2014 (Local Time) from KT82 Reporting Station
Overcast Overcast  
Wind Chill: 63°   Ceiling: 3400
Heat Index: 63°   Visibility: 10mi
Dew Point: 61°   Wind: 5mph
Humidity: 93%   Direction: 60°ENE
Pressure: 30.2"   Gusts: NA
Location:  30.3145°N, 99.2255°W
Report Text: KT82 310955Z AUTO 06004KT 10SM SCT027 BKN034 OVC046 17/16 A3020 RMK AO2 LTG DSNT S T01720160
Loading
Personal Weather Stations






























Interactive Weather Map
Tropical Storm Tracking
New forecast layout! Learn more

10-Day Weather Forecast

Advertisements
Track Severe Weather on mobile